Time;durP1;ratioP1;P1;durP2;ratioP2;P2;SDS_P1;SDS_P2;PMS_P1;PMS_P2;Temp;Humidity;BMP_temperature;BMP_pressure;BME280_temperature;BME280_humidity;BME280_pressure;Samples;Min_cycle;Max_cycle;Signal;HPM_P1;HPM_P2
2021/05/03 00:01:53;;;;;;;4.83;4.43;;;9.90;99.90;;;;;;5033412;28;20822;-60
2021/05/03 00:04:19;;;;;;;4.37;3.87;;;9.70;99.90;;;;;;5033588;28;20237;-60
2021/05/03 00:06:45;;;;;;;3.97;3.57;;;9.60;99.90;;;;;;5033876;28;20190;-59
2021/05/03 00:09:11;;;;;;;4.17;3.83;;;9.20;99.90;;;;;;5034457;28;20405;-59
2021/05/03 00:11:36;;;;;;;4.27;3.90;;;9.10;99.90;;;;;;5038305;28;20173;-59
2021/05/03 00:14:03;;;;;;;4.67;4.27;;;8.90;99.90;;;;;;5036594;28;20204;-59
2021/05/03 00:16:28;;;;;;;4.87;4.30;;;8.90;99.90;;;;;;5037945;28;20172;-59
2021/05/03 00:18:54;;;;;;;5.40;4.90;;;8.80;99.90;;;;;;5038065;28;20420;-59
2021/05/03 00:21:20;;;;;;;4.50;4.10;;;8.70;99.90;;;;;;5020325;28;20171;-59
2021/05/03 00:23:45;;;;;;;4.90;4.50;;;8.60;99.90;;;;;;5037506;28;20187;-58
2021/05/03 00:26:11;;;;;;;5.00;4.43;;;8.60;99.90;;;;;;5036300;28;20414;-58
2021/05/03 00:28:38;;;;;;;5.00;4.60;;;8.50;99.90;;;;;;5033346;28;20191;-60
2021/05/03 00:31:04;;;;;;;4.97;4.57;;;8.40;99.90;;;;;;5033303;28;20159;-60
2021/05/03 00:33:30;;;;;;;5.03;4.43;;;8.40;99.90;;;;;;5033516;28;20403;-60
2021/05/03 00:35:56;;;;;;;6.43;5.10;;;8.40;99.90;;;;;;5033158;28;20414;-60
2021/05/03 00:38:21;;;;;;;4.90;4.40;;;8.30;99.90;;;;;;5033280;28;20258;-60
2021/05/03 00:40:47;;;;;;;5.37;4.87;;;8.30;99.90;;;;;;5033142;28;20254;-60
2021/05/03 00:43:18;;;;;;;5.10;4.60;;;8.30;99.90;;;;;;5032605;28;20222;-59
2021/05/03 00:45:44;;;;;;;5.20;4.70;;;8.40;99.90;;;;;;5033448;28;20163;-60
2021/05/03 00:48:09;;;;;;;4.30;4.00;;;8.20;99.90;;;;;;5033292;28;20536;-60
2021/05/03 00:50:37;;;;;;;5.47;4.97;;;8.30;99.90;;;;;;5033191;28;20453;-59
2021/05/03 00:53:03;;;;;;;6.10;5.10;;;8.30;99.90;;;;;;5034193;28;20183;-60
2021/05/03 00:55:29;;;;;;;6.03;5.50;;;8.30;99.90;;;;;;5033322;28;20438;-60
2021/05/03 00:57:55;;;;;;;6.60;5.13;;;8.30;99.90;;;;;;5032995;28;20441;-59
2021/05/03 01:00:24;;;;;;;4.50;4.10;;;8.40;99.90;;;;;;5036167;28;20175;-60
2021/05/03 01:02:50;;;;;;;5.67;5.17;;;8.40;99.90;;;;;;5033222;28;20180;-60
2021/05/03 01:05:17;;;;;;;5.27;4.77;;;8.50;99.90;;;;;;5033077;28;20449;-58
2021/05/03 01:07:42;;;;;;;6.00;5.40;;;8.50;99.90;;;;;;5033191;28;20473;-60
2021/05/03 01:10:08;;;;;;;5.20;4.67;;;8.50;99.90;;;;;;5015682;28;20923;-59
2021/05/03 01:12:37;;;;;;;5.70;5.20;;;8.50;99.90;;;;;;5035446;28;20171;-59
2021/05/03 01:15:04;;;;;;;5.30;4.80;;;8.50;99.90;;;;;;5037147;28;20460;-60
2021/05/03 01:17:34;;;;;;;5.80;5.30;;;8.60;99.90;;;;;;5037011;28;20410;-58
2021/05/03 01:20:27;;;;;;;5.57;5.07;;;8.50;99.90;;;;;;5037312;28;20432;-59
2021/05/03 01:22:56;;;;;;;6.40;5.80;;;8.50;99.90;;;;;;5032525;28;20890;-59
2021/05/03 01:25:23;;;;;;;7.37;5.80;;;8.40;99.90;;;;;;5036446;28;20426;-60
2021/05/03 01:27:49;;;;;;;5.33;4.90;;;8.40;99.90;;;;;;5036438;28;20510;-60
2021/05/03 01:30:15;;;;;;;6.13;5.53;;;8.50;99.90;;;;;;5036115;28;20410;-60
2021/05/03 01:32:41;;;;;;;6.03;5.50;;;8.40;99.90;;;;;;5036351;28;20415;-60
2021/05/03 01:35:08;;;;;;;6.00;5.50;;;8.50;99.90;;;;;;5036528;28;20422;-60
2021/05/03 01:37:34;;;;;;;7.60;6.23;;;8.50;99.90;;;;;;5036228;28;20187;-59
2021/05/03 01:39:59;;;;;;;7.40;6.10;;;8.30;99.90;;;;;;5036229;28;20401;-60
2021/05/03 01:42:25;;;;;;;7.27;6.57;;;8.30;99.90;;;;;;5036678;28;20226;-58
2021/05/03 01:44:59;;;;;;;7.03;6.33;;;8.30;99.90;;;;;;5035878;28;20215;-60
2021/05/03 01:47:26;;;;;;;7.73;6.93;;;8.40;99.90;;;;;;5036050;28;20225;-60
2021/05/03 01:49:52;;;;;;;7.83;6.70;;;8.30;99.90;;;;;;5018613;28;20422;-60
2021/05/03 01:52:17;;;;;;;7.90;7.23;;;8.30;99.90;;;;;;5036075;28;20407;-60
2021/05/03 01:54:44;;;;;;;13.20;7.90;;;8.30;99.90;;;;;;5058271;23;20234;-58
2021/05/03 01:57:09;;;;;;;7.90;7.20;;;8.30;99.90;;;;;;5018218;28;20809;-59
2021/05/03 01:59:35;;;;;;;7.87;7.07;;;8.20;99.90;;;;;;5035139;28;20402;-56
2021/05/03 02:02:01;;;;;;;8.10;7.30;;;8.00;99.90;;;;;;5035892;28;20222;-59
2021/05/03 02:04:27;;;;;;;8.03;7.23;;;8.00;99.90;;;;;;5035586;28;20191;-58
2021/05/03 02:06:52;;;;;;;7.87;7.17;;;8.00;99.90;;;;;;5035336;28;20445;-57
2021/05/03 02:09:18;;;;;;;7.30;6.60;;;7.90;99.90;;;;;;5035361;28;20222;-58
2021/05/03 02:11:44;;;;;;;7.97;7.17;;;8.00;99.90;;;;;;5035628;28;20159;-58
2021/05/03 02:14:10;;;;;;;8.30;7.43;;;7.90;99.90;;;;;;5034700;28;20216;-58
2021/05/03 02:16:36;;;;;;;7.90;7.20;;;7.90;99.90;;;;;;5036080;28;20524;-59
2021/05/03 02:19:02;;;;;;;8.43;7.70;;;7.90;99.90;;;;;;5035219;28;20485;-57
2021/05/03 02:21:28;;;;;;;8.50;7.70;;;7.80;99.90;;;;;;5035477;28;20163;-56
2021/05/03 02:23:53;;;;;;;8.30;7.50;;;7.70;99.90;;;;;;5033517;28;20974;-58
2021/05/03 02:26:19;;;;;;;9.17;8.27;;;7.60;99.90;;;;;;5035267;28;20648;-58
2021/05/03 02:28:45;;;;;;;8.70;7.80;;;7.60;99.90;;;;;;5034586;28;20563;-56
2021/05/03 02:31:10;;;;;;;8.83;8.03;;;7.60;99.90;;;;;;5035220;28;20632;-58
2021/05/03 02:33:36;;;;;;;9.17;8.37;;;7.60;99.90;;;;;;5035270;28;20163;-57
2021/05/03 02:36:02;;;;;;;8.20;7.50;;;7.60;99.90;;;;;;5035079;28;20222;-58
2021/05/03 02:38:31;;;;;;;10.20;9.20;;;7.60;99.90;;;;;;5034971;28;20539;-57
2021/05/03 02:40:57;;;;;;;8.60;7.80;;;7.60;99.90;;;;;;5035307;28;20406;-58
2021/05/03 02:43:23;;;;;;;8.20;7.40;;;7.60;99.90;;;;;;5034657;28;20583;-58
2021/05/03 02:45:48;;;;;;;8.13;7.43;;;7.50;99.90;;;;;;5035735;28;20430;-57
2021/05/03 02:48:14;;;;;;;9.60;8.63;;;7.50;99.90;;;;;;5034716;28;20444;-56
2021/05/03 02:50:40;;;;;;;9.27;8.37;;;7.40;99.90;;;;;;5017087;28;20633;-55
2021/05/03 02:53:06;;;;;;;9.97;9.07;;;7.30;99.90;;;;;;5034967;28;20409;-56
2021/05/03 02:55:31;;;;;;;12.03;9.87;;;7.20;99.90;;;;;;5034911;28;20703;-55
2021/05/03 02:57:58;;;;;;;9.13;8.17;;;7.10;99.90;;;;;;5036400;28;20226;-56
2021/05/03 03:00:32;;;;;;;11.60;8.97;;;7.10;99.90;;;;;;5034293;28;20675;-57
2021/05/03 03:02:59;;;;;;;11.77;9.93;;;7.10;99.90;;;;;;5034390;28;20429;-56
2021/05/03 03:05:24;;;;;;;10.93;9.90;;;7.00;99.90;;;;;;5034549;28;20837;-57
2021/05/03 03:07:51;;;;;;;9.67;8.77;;;6.90;99.90;;;;;;5034199;28;20488;-55
2021/05/03 03:10:21;;;;;;;9.57;8.67;;;6.70;99.90;;;;;;5034739;28;20444;-58
2021/05/03 03:12:48;;;;;;;10.97;9.90;;;6.70;99.90;;;;;;5033998;28;20417;-58
2021/05/03 03:15:16;;;;;;;11.53;10.50;;;6.70;99.90;;;;;;5034113;28;20790;-58
2021/05/03 03:17:47;;;;;;;9.17;8.30;;;6.90;99.90;;;;;;5034314;28;20467;-58
2021/05/03 03:20:13;;;;;;;9.87;8.97;;;7.00;99.90;;;;;;5034091;28;20411;-56
2021/05/03 03:22:39;;;;;;;10.83;9.43;;;6.90;99.90;;;;;;5034234;28;20429;-58
2021/05/03 03:25:05;;;;;;;16.20;9.90;;;6.80;99.90;;;;;;5034026;28;20422;-55
2021/05/03 03:27:31;;;;;;;9.53;8.63;;;6.80;99.90;;;;;;5034140;28;20226;-58
2021/05/03 03:29:57;;;;;;;9.80;8.80;;;6.90;99.90;;;;;;5033427;28;20825;-58
2021/05/03 03:32:23;;;;;;;10.23;9.00;;;6.80;99.90;;;;;;5033757;28;20398;-57
2021/05/03 03:34:48;;;;;;;10.47;9.50;;;6.90;99.90;;;;;;5033938;28;20180;-58
2021/05/03 03:37:14;;;;;;;9.77;8.80;;;7.00;99.90;;;;;;5033984;28;20467;-55
2021/05/03 03:39:40;;;;;;;9.50;8.60;;;7.00;99.90;;;;;;5033672;28;20171;-58
2021/05/03 03:42:06;;;;;;;10.57;9.37;;;7.20;99.90;;;;;;5033904;28;20163;-56
2021/05/03 03:44:31;;;;;;;11.03;9.33;;;7.30;99.90;;;;;;5033121;28;20245;-58
2021/05/03 03:46:57;;;;;;;10.73;9.73;;;7.40;99.90;;;;;;5033787;28;20195;-58
2021/05/03 03:49:22;;;;;;;12.47;9.33;;;7.30;99.90;;;;;;5033429;28;20175;-57
2021/05/03 03:51:48;;;;;;;9.10;8.40;;;7.30;99.90;;;;;;5033784;28;20155;-58
2021/05/03 03:54:13;;;;;;;12.47;10.90;;;7.20;99.90;;;;;;5033303;28;20191;-57
2021/05/03 03:56:39;;;;;;;12.30;11.10;;;7.20;99.90;;;;;;5033820;28;20183;-57
2021/05/03 03:59:07;;;;;;;10.57;9.57;;;7.20;99.90;;;;;;5033474;28;20189;-57
2021/05/03 04:01:35;;;;;;;11.20;10.10;;;7.10;99.90;;;;;;5033625;28;20175;-58
2021/05/03 04:04:02;;;;;;;11.33;10.33;;;7.00;99.90;;;;;;5033530;28;20422;-56
2021/05/03 04:06:54;;;;;;;10.77;9.70;;;7.00;99.90;;;;;;5033527;28;20410;-58
2021/05/03 04:23:00;;;;;;;10.63;9.53;;;6.90;99.90;;;;;;5033174;28;20886;-57
2021/05/03 04:27:51;;;;;;;10.60;9.60;;;6.90;99.90;;;;;;5032765;28;20433;-58
2021/05/03 04:30:18;;;;;;;12.07;9.87;;;7.00;99.90;;;;;;5033030;28;20246;-55
2021/05/03 04:32:43;;;;;;;12.20;11.00;;;7.00;99.90;;;;;;5033253;28;20502;-58
2021/05/03 04:35:09;;;;;;;11.37;10.27;;;7.00;99.90;;;;;;5033255;28;20513;-58
2021/05/03 04:37:35;;;;;;;11.80;9.40;;;6.90;99.90;;;;;;5015291;28;20675;-56
2021/05/03 04:40:01;;;;;;;11.53;10.07;;;7.00;99.90;;;;;;5033224;28;20437;-56
2021/05/03 04:42:27;;;;;;;9.73;8.73;;;7.10;99.90;;;;;;5033087;28;20175;-57
2021/05/03 04:44:52;;;;;;;13.53;12.20;;;7.00;99.90;;;;;;5032387;28;20434;-56
2021/05/03 04:47:18;;;;;;;13.77;12.47;;;7.00;99.90;;;;;;5034770;28;20655;-57
2021/05/03 04:49:43;;;;;;;13.37;12.07;;;7.10;99.90;;;;;;5039426;28;20250;-58
2021/05/03 04:52:09;;;;;;;12.67;11.37;;;7.10;99.90;;;;;;5037430;28;20175;-56
2021/05/03 04:54:35;;;;;;;12.50;11.17;;;7.10;99.90;;;;;;5036686;28;20727;-58
2021/05/03 04:57:00;;;;;;;12.03;10.83;;;7.00;99.90;;;;;;5036924;28;20175;-58
2021/05/03 04:59:26;;;;;;;13.10;11.57;;;6.90;99.90;;;;;;5036476;28;20545;-58
2021/05/03 05:01:51;;;;;;;14.27;11.70;;;7.00;99.90;;;;;;5037361;28;20171;-57
2021/05/03 05:04:17;;;;;;;11.40;10.30;;;7.00;99.90;;;;;;5036760;28;20195;-58
2021/05/03 05:06:43;;;;;;;12.00;10.80;;;6.90;99.90;;;;;;5036368;28;20250;-58
2021/05/03 05:09:09;;;;;;;11.60;10.50;;;6.90;99.90;;;;;;5036740;28;20167;-59
2021/05/03 05:11:35;;;;;;;12.60;11.30;;;7.00;99.90;;;;;;5036689;28;20406;-57
2021/05/03 05:14:01;;;;;;;12.30;11.00;;;7.10;99.90;;;;;;5035999;28;20438;-57
2021/05/03 05:16:27;;;;;;;13.30;11.43;;;7.20;99.90;;;;;;5035370;28;20749;-59
2021/05/03 05:18:53;;;;;;;15.50;11.67;;;7.30;99.90;;;;;;5036122;28;20175;-56
2021/05/03 05:21:20;;;;;;;13.07;10.90;;;7.20;99.90;;;;;;5036324;28;20825;-58
2021/05/03 05:23:48;;;;;;;12.13;10.83;;;7.40;99.90;;;;;;5036504;28;20179;-57
2021/05/03 05:26:13;;;;;;;13.10;11.70;;;7.50;99.90;;;;;;5036483;28;20490;-57
2021/05/03 05:28:39;;;;;;;13.43;10.97;;;7.50;99.90;;;;;;5035874;28;20560;-56
2021/05/03 05:31:05;;;;;;;13.37;11.97;;;7.60;99.90;;;;;;5036262;28;20163;-58
2021/05/03 05:33:30;;;;;;;12.93;11.67;;;7.70;99.90;;;;;;5036355;28;20172;-56
2021/05/03 05:35:56;;;;;;;11.27;9.20;;;7.80;99.90;;;;;;5036184;28;20422;-56
2021/05/03 05:38:22;;;;;;;11.17;10.10;;;7.90;99.90;;;;;;5035912;28;20168;-53
2021/05/03 05:40:47;;;;;;;11.50;10.20;;;7.90;99.90;;;;;;5035776;28;20282;-54
2021/05/03 05:43:13;;;;;;;13.70;12.43;;;8.00;99.90;;;;;;5035723;28;20202;-57
2021/05/03 05:45:39;;;;;;;12.97;11.67;;;8.10;99.90;;;;;;5035246;28;20210;-57
2021/05/03 05:48:07;;;;;;;12.57;11.30;;;8.10;99.90;;;;;;5035913;28;20437;-57
2021/05/03 05:50:33;;;;;;;11.40;10.20;;;8.20;99.90;;;;;;5035542;28;20403;-58
2021/05/03 05:52:59;;;;;;;11.30;10.30;;;8.40;99.90;;;;;;5035716;28;20411;-56
2021/05/03 05:55:24;;;;;;;11.80;10.70;;;8.40;99.90;;;;;;5035315;28;20813;-56
2021/05/03 05:57:50;;;;;;;11.10;10.03;;;8.40;99.90;;;;;;5034666;28;20168;-58
2021/05/03 06:00:16;;;;;;;12.40;10.80;;;8.40;99.90;;;;;;5034966;28;20170;-55
2021/05/03 06:02:42;;;;;;;11.30;10.20;;;8.40;99.90;;;;;;5035660;28;20207;-56
2021/05/03 06:05:09;;;;;;;11.80;10.53;;;8.60;99.90;;;;;;5035795;28;20482;-58
2021/05/03 06:07:35;;;;;;;11.43;10.23;;;8.60;99.90;;;;;;5035186;28;20189;-55
2021/05/03 06:10:00;;;;;;;12.40;10.20;;;8.80;99.90;;;;;;5035532;28;20398;-56
2021/05/03 06:12:26;;;;;;;14.17;10.37;;;9.00;99.90;;;;;;5035230;28;20195;-57
2021/05/03 06:14:52;;;;;;;11.63;10.57;;;9.00;99.90;;;;;;5034832;28;20201;-57
2021/05/03 06:17:19;;;;;;;11.13;10.13;;;9.10;99.90;;;;;;5035775;28;20175;-57
2021/05/03 06:19:44;;;;;;;10.40;9.50;;;9.20;99.90;;;;;;5035165;28;20425;-55
2021/05/03 06:22:10;;;;;;;12.50;10.47;;;9.40;99.90;;;;;;5034751;28;20413;-57
2021/05/03 06:24:36;;;;;;;10.20;9.20;;;9.60;99.90;;;;;;5035222;28;20226;-57
2021/05/03 06:27:01;;;;;;;9.83;8.93;;;9.60;99.90;;;;;;5034853;28;20189;-57
2021/05/03 06:29:27;;;;;;;9.60;8.70;;;9.40;99.90;;;;;;5034098;28;20172;-57
2021/05/03 06:31:54;;;;;;;9.73;8.83;;;9.30;99.90;;;;;;5034789;28;20552;-57
2021/05/03 06:34:19;;;;;;;8.80;7.93;;;9.50;99.90;;;;;;5035199;28;20194;-53
2021/05/03 06:36:45;;;;;;;8.83;7.93;;;9.80;99.90;;;;;;5034945;28;20424;-56
2021/05/03 06:39:10;;;;;;;8.57;7.67;;;10.00;99.90;;;;;;5035027;28;20175;-58
2021/05/03 06:41:36;;;;;;;12.00;9.30;;;10.10;99.90;;;;;;5035335;28;20184;-58
2021/05/03 06:44:02;;;;;;;9.97;8.97;;;10.00;99.90;;;;;;5034229;28;20605;-57
2021/05/03 06:46:27;;;;;;;13.57;9.17;;;9.90;99.90;;;;;;5034966;28;20174;-58
2021/05/03 06:48:53;;;;;;;9.97;8.87;;;10.00;99.90;;;;;;5034427;28;20658;-58
2021/05/03 06:51:18;;;;;;;10.33;9.13;;;10.00;99.90;;;;;;5034423;28;20169;-58
2021/05/03 06:53:44;;;;;;;8.70;7.83;;;10.30;99.90;;;;;;5034424;28;20289;-56
2021/05/03 06:56:10;;;;;;;9.13;8.33;;;10.40;99.90;;;;;;5037147;28;20197;-57
2021/05/03 06:58:35;;;;;;;12.00;10.30;;;10.60;99.90;;;;;;5034725;28;20169;-56
2021/05/03 07:01:01;;;;;;;10.30;8.83;;;10.40;99.90;;;;;;5034426;28;20174;-58
2021/05/03 07:03:26;;;;;;;8.33;7.50;;;10.40;99.90;;;;;;5034193;28;20167;-58
2021/05/03 07:05:52;;;;;;;9.77;8.07;;;10.60;99.90;;;;;;5034311;28;20278;-58
2021/05/03 07:08:23;;;;;;;10.10;9.10;;;10.70;99.90;;;;;;5032834;28;20190;-58
2021/05/03 07:10:49;;;;;;;10.07;9.07;;;10.90;99.90;;;;;;5033939;28;20154;-57
2021/05/03 07:13:14;;;;;;;9.43;8.07;;;10.90;99.90;;;;;;5034100;28;20416;-54
2021/05/03 07:15:41;;;;;;;8.87;7.90;;;11.00;99.90;;;;;;5033733;28;20186;-58
2021/05/03 07:18:07;;;;;;;9.70;8.80;;;11.20;99.90;;;;;;5033963;28;20175;-56
2021/05/03 07:20:33;;;;;;;8.50;7.70;;;11.40;99.90;;;;;;5034528;28;20759;-58
2021/05/03 07:22:59;;;;;;;8.80;7.97;;;11.40;99.90;;;;;;5034216;28;20425;-56
2021/05/03 07:25:24;;;;;;;9.47;8.57;;;11.60;99.90;;;;;;5034148;28;20245;-55
2021/05/03 07:27:50;;;;;;;9.63;8.73;;;11.60;99.90;;;;;;5034393;28;20190;-56
2021/05/03 07:30:16;;;;;;;9.00;8.10;;;11.60;99.90;;;;;;5033631;28;20167;-58
2021/05/03 07:32:42;;;;;;;9.47;8.57;;;11.70;99.60;;;;;;5025527;28;20237;-58
2021/05/03 07:35:10;;;;;;;14.90;8.80;;;11.50;99.90;;;;;;5033876;28;20422;-54
2021/05/03 07:37:36;;;;;;;8.00;7.20;;;11.30;99.70;;;;;;5033839;28;20193;-57
2021/05/03 07:40:03;;;;;;;9.80;8.83;;;11.40;99.70;;;;;;5034223;28;20410;-56
2021/05/03 07:42:29;;;;;;;9.63;8.10;;;11.70;99.40;;;;;;5033592;28;20551;-56
2021/05/03 07:44:55;;;;;;;11.10;10.00;;;12.10;99.60;;;;;;5033241;28;20445;-58
2021/05/03 07:47:20;;;;;;;13.57;9.97;;;12.30;99.60;;;;;;5033436;28;20282;-57
2021/05/03 07:49:46;;;;;;;11.43;10.13;;;12.30;99.50;;;;;;5034033;28;20179;-57
2021/05/03 07:52:11;;;;;;;10.17;9.30;;;12.10;99.90;;;;;;5033873;28;20274;-57
2021/05/03 07:54:37;;;;;;;9.60;8.60;;;12.00;99.60;;;;;;5055518;23;20358;-59
2021/05/03 07:57:03;;;;;;;12.03;10.87;;;11.80;99.90;;;;;;5033677;28;20207;-59
2021/05/03 07:59:28;;;;;;;11.30;9.30;;;11.60;99.90;;;;;;5032862;28;20220;-59
2021/05/03 08:01:54;;;;;;;13.80;10.00;;;11.60;99.90;;;;;;5033371;28;20182;-58
2021/05/03 08:04:21;;;;;;;10.20;9.30;;;11.80;99.90;;;;;;5033923;28;20164;-58
2021/05/03 08:06:47;;;;;;;26.40;13.13;;;12.20;99.90;;;;;;5033076;28;20163;-59
2021/05/03 08:09:12;;;;;;;11.27;9.63;;;12.10;99.90;;;;;;5032089;28;20410;-59
2021/05/03 08:11:43;;;;;;;11.17;10.10;;;12.30;99.90;;;;;;5028285;28;20407;-58
2021/05/03 08:14:15;;;;;;;11.13;9.83;;;12.50;99.90;;;;;;5025589;28;20228;-58
2021/05/03 08:16:42;;;;;;;11.03;9.43;;;12.30;99.80;;;;;;5033191;28;20382;-61
2021/05/03 08:19:07;;;;;;;10.77;9.77;;;12.30;99.90;;;;;;5033185;28;20413;-59
2021/05/03 08:21:33;;;;;;;10.90;9.90;;;11.80;99.90;;;;;;5032848;28;20405;-60
2021/05/03 08:23:59;;;;;;;11.17;10.17;;;11.50;99.90;;;;;;5033202;28;20167;-60
2021/05/03 08:26:25;;;;;;;11.97;10.83;;;11.60;99.90;;;;;;5033189;28;20286;-60
2021/05/03 08:28:50;;;;;;;10.80;9.80;;;11.40;99.90;;;;;;5033350;28;20199;-60
2021/05/03 08:31:17;;;;;;;10.93;9.70;;;11.60;99.90;;;;;;5033568;28;20171;-59
2021/05/03 08:33:43;;;;;;;10.43;9.40;;;11.70;99.90;;;;;;5033660;28;20163;-59
2021/05/03 08:36:08;;;;;;;10.83;9.73;;;11.60;99.90;;;;;;5016518;28;20817;-60
2021/05/03 08:38:34;;;;;;;10.63;9.60;;;11.70;99.90;;;;;;5033089;28;20176;-60
2021/05/03 08:41:03;;;;;;;11.20;9.23;;;12.00;99.70;;;;;;5025850;28;20171;-60
2021/05/03 08:43:31;;;;;;;9.83;8.60;;;12.20;98.80;;;;;;5008198;28;20585;-60
2021/05/03 08:45:57;;;;;;;8.93;8.13;;;12.70;97.70;;;;;;5018226;28;20437;-59
2021/05/03 08:53:24;;;;;;;10.80;9.80;;;13.30;96.90;;;;;;5033135;28;20462;-59
2021/05/03 08:55:50;;;;;;;13.63;10.20;;;13.10;98.00;;;;;;5032997;28;20213;-60
2021/05/03 08:58:16;;;;;;;10.37;9.23;;;13.00;97.60;;;;;;5016949;28;20443;-59
2021/05/03 09:00:41;;;;;;;9.77;8.87;;;12.90;97.50;;;;;;5024132;28;20172;-59
2021/05/03 09:03:10;;;;;;;10.37;9.47;;;13.00;97.20;;;;;;5023505;28;20176;-58
2021/05/03 09:05:36;;;;;;;11.67;9.70;;;12.90;96.90;;;;;;5012874;28;20226;-59
2021/05/03 09:08:03;;;;;;;10.53;9.40;;;12.60;97.20;;;;;;5015923;28;20484;-58
2021/05/03 09:10:30;;;;;;;26.33;10.93;;;12.60;98.30;;;;;;5016037;28;20410;-59
2021/05/03 09:13:08;;;;;;;10.70;9.07;;;12.80;97.60;;;;;;5033410;28;20452;-59
2021/05/03 09:15:34;;;;;;;9.70;8.80;;;13.10;96.20;;;;;;5031526;28;20802;-59
2021/05/03 09:18:00;;;;;;;9.50;8.60;;;13.20;95.60;;;;;;5015339;28;20420;-56
2021/05/03 09:20:26;;;;;;;8.77;7.97;;;13.50;95.50;;;;;;5033132;28;20171;-59
2021/05/03 09:23:07;;;;;;;9.60;8.70;;;13.70;95.20;;;;;;5033138;28;20625;-61
2021/05/03 09:25:41;;;;;;;9.37;8.57;;;13.70;94.40;;;;;;5032808;28;20929;-59
2021/05/03 09:28:10;;;;;;;9.80;8.90;;;13.50;94.20;;;;;;5032989;28;20469;-58
2021/05/03 09:30:37;;;;;;;9.30;8.40;;;13.50;94.20;;;;;;5032251;28;20402;-58
2021/05/03 09:33:18;;;;;;;9.50;8.60;;;13.60;95.00;;;;;;5034191;28;20402;-60
2021/05/03 09:35:48;;;;;;;8.87;8.07;;;13.50;94.90;;;;;;5036379;28;20430;-60
2021/05/03 09:38:42;;;;;;;9.47;8.57;;;13.60;94.50;;;;;;5036327;28;20821;-59
2021/05/03 09:41:17;;;;;;;11.30;8.50;;;13.80;94.40;;;;;;5035974;28;20806;-59
2021/05/03 09:43:44;;;;;;;8.40;7.60;;;13.80;94.20;;;;;;5036179;28;20751;-57
2021/05/03 09:46:37;;;;;;;8.73;7.83;;;13.90;93.70;;;;;;5034540;28;20434;-59
2021/05/03 09:49:10;;;;;;;8.33;7.50;;;13.60;93.90;;;;;;5034934;28;20454;-58
2021/05/03 09:51:35;;;;;;;7.33;6.73;;;13.60;93.90;;;;;;5036153;28;20959;-57
2021/05/03 09:54:25;;;;;;;8.90;6.60;;;13.70;92.90;;;;;;5036344;28;20491;-58
2021/05/03 09:56:52;;;;;;;5.97;5.37;;;13.90;91.10;;;;;;5036644;28;20547;-59
2021/05/03 09:59:54;;;;;;;6.33;5.00;;;14.40;90.00;;;;;;5036167;28;20867;-59
2021/05/03 10:02:34;;;;;;;6.70;6.10;;;14.80;87.60;;;;;;4984265;28;20474;-60
2021/05/03 10:07:36;;;;;;;6.57;6.00;;;15.10;83.70;;;;;;5036188;28;20441;-58
2021/05/03 10:12:31;;;;;;;5.90;5.30;;;14.80;84.50;;;;;;5035674;28;20888;-59
2021/05/03 10:14:59;;;;;;;7.37;6.67;;;14.80;85.00;;;;;;5035540;28;20423;-59
2021/05/03 10:17:26;;;;;;;10.50;6.13;;;15.10;86.50;;;;;;5035561;28;20409;-58
2021/05/03 10:19:53;;;;;;;4.87;4.40;;;15.10;84.90;;;;;;5035293;28;20420;-59
2021/05/03 10:22:21;;;;;;;9.67;6.80;;;15.00;81.20;;;;;;5035698;28;20401;-60
2021/05/03 10:24:51;;;;;;;5.80;5.30;;;15.00;83.30;;;;;;5035392;28;20905;-57
2021/05/03 10:27:18;;;;;;;6.57;5.90;;;15.00;85.90;;;;;;5035594;28;20819;-58
2021/05/03 10:29:45;;;;;;;5.97;5.47;;;14.70;82.80;;;;;;5035380;28;20397;-58
2021/05/03 10:32:14;;;;;;;5.10;4.60;;;14.80;80.40;;;;;;5036598;28;20760;-59
2021/05/03 10:34:47;;;;;;;5.03;4.63;;;15.30;79.40;;;;;;5035670;28;20425;-58
2021/05/03 10:37:33;;;;;;;6.87;5.10;;;15.50;76.70;;;;;;5031865;28;20769;-55
2021/05/03 10:40:05;;;;;;;5.03;4.57;;;15.20;75.40;;;;;;5025217;28;20502;-59
2021/05/03 10:42:31;;;;;;;4.60;4.23;;;14.70;75.70;;;;;;5020012;28;20473;-60
2021/05/03 10:45:13;;;;;;;5.50;4.53;;;14.70;79.10;;;;;;5022921;28;20523;-60
2021/05/03 10:47:45;;;;;;;4.97;4.57;;;15.00;75.30;;;;;;5021778;28;20449;-58
2021/05/03 10:50:46;;;;;;;6.73;6.00;;;14.70;79.40;;;;;;5034909;28;20411;-59
2021/05/03 10:53:33;;;;;;;5.50;4.40;;;14.40;79.80;;;;;;5011334;28;20420;-60
2021/05/03 10:56:02;;;;;;;5.47;4.90;;;14.30;80.70;;;;;;5015220;28;20960;-60
2021/05/03 10:58:28;;;;;;;5.77;5.17;;;14.30;81.00;;;;;;5024226;28;20512;-60
2021/05/03 11:01:00;;;;;;;5.57;4.43;;;14.20;79.10;;;;;;5018864;28;20517;-59
2021/05/03 11:03:59;;;;;;;6.97;4.93;;;14.50;82.30;;;;;;5015221;28;20425;-60
2021/05/03 11:06:37;;;;;;;4.40;4.07;;;15.80;78.10;;;;;;5015691;28;20426;-58
2021/05/03 11:11:54;;;;;;;5.57;5.07;;;18.30;68.30;;;;;;5015888;28;20407;-60
2021/05/03 11:14:21;;;;;;;5.13;4.30;;;18.20;66.30;;;;;;5013559;28;20422;-59
2021/05/03 11:16:53;;;;;;;4.77;4.37;;;17.70;65.40;;;;;;5014540;28;20406;-59
2021/05/03 11:22:00;;;;;;;4.53;4.13;;;17.00;69.10;;;;;;5034812;28;20922;-59
2021/05/03 11:24:31;;;;;;;5.30;4.00;;;16.40;69.50;;;;;;5017887;28;20505;-59
2021/05/03 11:29:29;;;;;;;3.40;3.10;;;16.10;64.80;;;;;;5014074;28;20747;-59
2021/05/03 11:31:55;;;;;;;5.20;3.70;;;16.30;66.60;;;;;;5013623;28;20802;-55
2021/05/03 11:37:01;;;;;;;4.13;3.77;;;15.90;70.30;;;;;;5026151;28;20168;-59
2021/05/03 11:39:54;;;;;;;4.40;4.10;;;15.70;67.30;;;;;;5032552;28;20482;-59
2021/05/03 11:45:06;;;;;;;6.67;3.60;;;16.10;68.60;;;;;;5033886;28;20444;-59
2021/05/03 11:47:41;;;;;;;3.20;2.90;;;17.80;64.90;;;;;;5033780;28;20441;-60
2021/05/03 11:50:08;;;;;;;3.60;3.30;;;19.90;56.90;;;;;;5033499;28;20444;-60
2021/05/03 11:52:35;;;;;;;3.63;2.97;;;19.30;55.00;;;;;;5033590;28;20471;-59
2021/05/03 11:55:09;;;;;;;3.40;3.10;;;19.00;55.70;;;;;;5032046;28;20813;-60
2021/05/03 11:57:38;;;;;;;3.10;2.80;;;18.20;58.00;;;;;;5034007;28;20425;-60
2021/05/03 12:00:06;;;;;;;3.10;2.80;;;17.50;58.10;;;;;;5033803;28;20406;-60
2021/05/03 12:02:32;;;;;;;5.17;3.03;;;17.50;56.40;;;;;;5033907;28;20402;-60
2021/05/03 12:04:58;;;;;;;3.03;2.40;;;18.90;55.60;;;;;;5015518;28;20964;-60
2021/05/03 12:07:24;;;;;;;4.30;2.77;;;19.60;56.10;;;;;;5026715;28;20357;-60
2021/05/03 12:10:10;;;;;;;2.50;2.30;;;20.70;53.20;;;;;;5027012;28;20413;-60
2021/05/03 12:12:47;;;;;;;3.57;3.27;;;21.10;51.80;;;;;;5031862;28;20379;-60
2021/05/03 12:15:21;;;;;;;3.23;2.93;;;20.20;51.60;;;;;;5011697;28;20433;-60
2021/05/03 12:17:47;;;;;;;3.10;2.60;;;18.80;51.10;;;;;;5033349;28;20909;-60
2021/05/03 12:20:15;;;;;;;2.30;2.10;;;18.60;51.90;;;;;;5013210;28;20410;-60
2021/05/03 12:23:03;;;;;;;2.97;2.67;;;19.20;52.00;;;;;;5013283;28;20451;-60
2021/05/03 12:25:37;;;;;;;2.77;2.57;;;21.40;51.20;;;;;;5013640;28;20494;-57
2021/05/03 12:28:11;;;;;;;3.07;2.70;;;21.50;48.90;;;;;;5033508;28;20437;-58
2021/05/03 12:30:38;;;;;;;2.70;2.50;;;21.40;47.70;;;;;;5032810;28;20390;-58
2021/05/03 12:33:08;;;;;;;4.20;2.37;;;20.30;47.40;;;;;;5033372;28;20765;-58
2021/05/03 12:35:34;;;;;;;3.90;2.80;;;19.20;49.10;;;;;;5032871;28;20441;-57
2021/05/03 12:37:59;;;;;;;4.63;2.40;;;18.70;50.50;;;;;;5023876;28;20591;-54
2021/05/03 12:40:25;;;;;;;3.23;2.10;;;18.00;52.60;;;;;;5013263;28;20291;-58
2021/05/03 12:42:53;;;;;;;3.73;2.30;;;17.50;53.10;;;;;;4995602;28;20176;-57
2021/05/03 12:45:50;;;;;;;2.70;2.50;;;17.50;52.10;;;;;;5012813;28;20196;-57
2021/05/03 12:58:33;;;;;;;6.30;2.90;;;17.90;52.10;;;;;;5033197;28;20766;-58
2021/05/03 13:04:24;;;;;;;2.47;2.27;;;18.40;51.00;;;;;;5033094;28;20390;-57
2021/05/03 13:09:09;;;;;;;2.33;2.03;;;18.60;52.30;;;;;;5026468;28;20479;-59
2021/05/03 13:12:10;;;;;;;3.60;3.00;;;18.50;50.10;;;;;;5036468;28;20831;-59
2021/05/03 13:31:45;;;;;;;2.73;2.53;;;19.30;50.80;;;;;;5036714;28;20450;-59
2021/05/03 13:34:16;;;;;;;2.73;2.50;;;19.30;50.10;;;;;;5036297;28;20413;-55
2021/05/03 13:36:47;;;;;;;3.53;3.03;;;19.30;49.50;;;;;;5037295;28;20393;-58
2021/05/03 13:39:13;;;;;;;3.00;2.70;;;19.20;50.80;;;;;;5033917;28;20410;-59
2021/05/03 13:41:41;;;;;;;5.53;2.70;;;18.90;49.30;;;;;;5025316;28;20415;-58
2021/05/03 13:44:08;;;;;;;1.90;1.70;;;18.80;50.40;;;;;;5034774;28;20417;-60
2021/05/03 13:46:34;;;;;;;4.30;2.20;;;18.50;49.70;;;;;;5036017;28;20468;-59
2021/05/03 13:49:00;;;;;;;2.20;2.00;;;18.00;49.50;;;;;;5035547;28;20953;-58
2021/05/03 13:51:27;;;;;;;2.73;2.00;;;17.70;50.10;;;;;;5036362;28;20460;-58
2021/05/03 13:53:54;;;;;;;2.73;2.40;;;18.00;52.30;;;;;;5035996;28;20410;-59
2021/05/03 13:56:20;;;;;;;2.33;2.13;;;18.30;49.60;;;;;;5057498;23;20490;-58
2021/05/03 13:58:46;;;;;;;2.17;1.97;;;18.30;50.40;;;;;;5035728;28;20481;-57
2021/05/03 14:01:13;;;;;;;4.37;2.87;;;21.10;49.10;;;;;;5035470;28;20433;-57
2021/05/03 14:03:39;;;;;;;2.73;1.57;;;23.40;45.90;;;;;;5035349;28;20448;-59